createdAt,value
2017-10-13T00:00:38.674Z,975.64
2017-10-13T00:01:47.372Z,975.72
2017-10-13T00:02:57.075Z,975.69
2017-10-13T00:04:06.105Z,975.67
2017-10-13T00:05:15.139Z,975.67
2017-10-13T00:06:24.515Z,975.65
2017-10-13T00:07:33.880Z,975.66
2017-10-13T00:08:43.245Z,975.62
2017-10-13T00:09:52.940Z,975.66
2017-10-13T00:11:02.298Z,975.65
2017-10-13T00:12:11.663Z,975.62
2017-10-13T00:13:20.684Z,975.63
2017-10-13T00:14:29.380Z,975.68
2017-10-13T00:15:38.410Z,975.75
2017-10-13T00:16:47.779Z,975.72
2017-10-13T00:17:56.473Z,975.72
2017-10-13T00:19:06.169Z,975.72
2017-10-13T00:20:15.195Z,975.71
2017-10-13T00:21:23.896Z,975.76
2017-10-13T00:22:32.927Z,975.77
2017-10-13T00:23:41.628Z,975.78
2017-10-13T00:24:51.000Z,975.86
2017-10-13T00:25:59.701Z,975.8
2017-10-13T00:27:08.740Z,975.84
2017-10-13T00:28:18.103Z,975.82
2017-10-13T00:29:27.141Z,975.8
2017-10-13T00:30:36.171Z,975.77
2017-10-13T00:31:45.533Z,975.81
2017-10-13T00:32:55.232Z,975.84
2017-10-13T00:34:04.936Z,975.83
2017-10-13T00:35:13.965Z,975.84
2017-10-13T00:36:22.664Z,975.85
2017-10-13T00:37:31.365Z,975.81
2017-10-13T00:38:40.390Z,975.77
2017-10-13T00:39:49.089Z,975.75
2017-10-13T00:40:58.116Z,975.79
2017-10-13T00:42:07.143Z,975.77
2017-10-13T00:43:15.839Z,975.78
2017-10-13T00:44:25.205Z,975.8
2017-10-13T00:45:34.231Z,975.73
2017-10-13T00:46:43.957Z,975.68
2017-10-13T00:47:52.987Z,975.64
2017-10-13T00:49:01.683Z,975.66
2017-10-13T00:50:11.376Z,975.66
2017-10-13T00:51:20.078Z,975.67
2017-10-13T00:52:29.115Z,975.7
2017-10-13T00:53:38.473Z,975.66
2017-10-13T00:54:47.170Z,975.65
2017-10-13T00:55:56.867Z,975.61
2017-10-13T00:57:05.899Z,975.56
2017-10-13T00:58:14.594Z,975.59
2017-10-13T00:59:23.626Z,975.55
2017-10-13T01:00:32.656Z,975.61
2017-10-13T01:01:41.351Z,975.56
2017-10-13T01:02:50.051Z,975.61
2017-10-13T01:03:58.745Z,975.63
2017-10-13T01:05:07.776Z,975.61
2017-10-13T01:06:16.472Z,975.61
2017-10-13T01:07:25.505Z,975.61
2017-10-13T01:08:34.865Z,975.6
2017-10-13T01:09:43.560Z,975.57
2017-10-13T01:10:53.592Z,975.56
2017-10-13T01:12:02.620Z,975.54
2017-10-13T01:13:11.980Z,975.55
2017-10-13T01:14:21.010Z,975.56
2017-10-13T01:15:30.377Z,975.57
2017-10-13T01:16:39.754Z,975.57
2017-10-13T01:17:48.788Z,975.62
2017-10-13T01:18:58.161Z,975.62
2017-10-13T01:20:07.192Z,975.61
2017-10-13T01:21:16.224Z,975.6
2017-10-13T01:22:25.582Z,975.63
2017-10-13T01:23:34.279Z,975.67
2017-10-13T01:24:43.312Z,975.72
2017-10-13T01:25:52.342Z,975.71
2017-10-13T01:27:01.372Z,975.73
2017-10-13T01:28:10.073Z,975.64
2017-10-13T01:29:19.102Z,975.61
2017-10-13T01:30:27.800Z,975.6
2017-10-13T01:31:37.502Z,975.6
2017-10-13T01:32:46.533Z,975.59
2017-10-13T01:33:55.231Z,975.56
2017-10-13T01:35:04.266Z,975.57
2017-10-13T01:36:13.296Z,975.61
2017-10-13T01:37:22.656Z,975.64
2017-10-13T01:38:31.679Z,975.64
2017-10-13T01:39:40.710Z,975.64
2017-10-13T01:40:49.741Z,975.67
2017-10-13T01:41:58.766Z,975.65
2017-10-13T01:43:07.797Z,975.61
2017-10-13T01:44:16.826Z,975.57
2017-10-13T01:45:26.188Z,975.58
2017-10-13T01:46:35.235Z,975.57
2017-10-13T01:47:44.617Z,975.54
2017-10-13T01:48:53.637Z,975.59
2017-10-13T01:50:03.007Z,975.54
2017-10-13T01:51:11.701Z,975.53
2017-10-13T01:52:20.736Z,975.55
2017-10-13T01:53:29.793Z,975.52
2017-10-13T01:54:38.802Z,975.52
2017-10-13T01:55:47.832Z,975.5
2017-10-13T01:56:56.864Z,975.52
2017-10-13T01:58:06.227Z,975.58
2017-10-13T01:59:15.914Z,975.59
2017-10-13T02:00:24.613Z,975.56
2017-10-13T02:01:33.641Z,975.6
2017-10-13T02:02:42.671Z,975.6
2017-10-13T02:03:52.035Z,975.56
2017-10-13T02:05:01.727Z,975.58
2017-10-13T02:06:11.087Z,975.57
2017-10-13T02:07:19.783Z,975.57
2017-10-13T02:08:29.157Z,975.55
2017-10-13T02:09:38.189Z,975.54
2017-10-13T02:10:47.218Z,975.51
2017-10-13T02:11:55.921Z,975.52
2017-10-13T02:13:04.951Z,975.55
2017-10-13T02:14:14.325Z,975.5
2017-10-13T02:15:23.016Z,975.54
2017-10-13T02:16:32.378Z,975.57
2017-10-13T02:17:42.078Z,975.64
2017-10-13T02:18:51.100Z,975.69
2017-10-13T02:20:01.123Z,975.72
2017-10-13T02:21:10.825Z,975.79
2017-10-13T02:22:19.531Z,975.73
2017-10-13T02:23:29.222Z,975.77
2017-10-13T02:24:38.581Z,975.76
2017-10-13T02:25:47.603Z,975.74
2017-10-13T02:26:56.632Z,975.7
2017-10-13T02:28:05.659Z,975.71
2017-10-13T02:29:14.360Z,975.68
2017-10-13T02:30:24.065Z,975.69
2017-10-13T02:31:33.433Z,975.72
2017-10-13T02:32:42.471Z,975.72
2017-10-13T02:33:52.171Z,975.69
2017-10-13T02:35:00.871Z,975.73
2017-10-13T02:36:10.254Z,975.74
2017-10-13T02:37:19.620Z,975.74
2017-10-13T02:38:28.982Z,975.73
2017-10-13T02:39:38.012Z,975.75
2017-10-13T02:40:47.044Z,975.72
2017-10-13T02:41:56.404Z,975.76
2017-10-13T02:43:05.437Z,975.75
2017-10-13T02:44:14.137Z,975.76
2017-10-13T02:45:23.174Z,975.72
2017-10-13T02:46:32.537Z,975.7
2017-10-13T02:47:41.921Z,975.71
2017-10-13T02:48:50.949Z,975.71
2017-10-13T02:50:00.645Z,975.67
2017-10-13T02:51:09.344Z,975.68
2017-10-13T02:52:19.040Z,975.72
2017-10-13T02:53:28.407Z,975.65
2017-10-13T02:54:37.439Z,975.66
2017-10-13T02:55:46.137Z,975.67
2017-10-13T02:56:55.179Z,975.65
2017-10-13T02:58:04.218Z,975.7
2017-10-13T02:59:13.246Z,975.72
2017-10-13T03:00:22.273Z,975.7
2017-10-13T03:01:30.971Z,975.74
2017-10-13T03:02:40.002Z,975.72
2017-10-13T03:03:49.369Z,975.72
2017-10-13T03:04:58.398Z,975.64
2017-10-13T03:06:07.101Z,975.66
2017-10-13T03:07:16.128Z,975.7
2017-10-13T03:08:25.817Z,975.68
2017-10-13T03:09:34.516Z,975.65
2017-10-13T03:10:43.552Z,975.63
2017-10-13T03:11:52.250Z,975.67
2017-10-13T03:13:01.959Z,975.66
2017-10-13T03:14:11.340Z,975.63
2017-10-13T03:15:20.383Z,975.61
2017-10-13T03:16:29.413Z,975.62
2017-10-13T03:17:38.446Z,975.66
2017-10-13T03:18:47.474Z,975.65
2017-10-13T03:19:56.172Z,975.67
2017-10-13T03:21:05.201Z,975.65
2017-10-13T03:22:14.232Z,975.68
2017-10-13T03:23:23.263Z,975.66
2017-10-13T03:24:32.618Z,975.63
2017-10-13T03:25:41.648Z,975.63
2017-10-13T03:26:51.020Z,975.63
2017-10-13T03:28:00.432Z,975.64
2017-10-13T03:29:09.464Z,975.59
2017-10-13T03:30:18.165Z,975.56
2017-10-13T03:31:27.194Z,975.55
2017-10-13T03:32:36.224Z,975.51
2017-10-13T03:33:45.253Z,975.51
2017-10-13T03:34:54.286Z,975.55
2017-10-13T03:36:03.308Z,975.61
2017-10-13T03:37:12.338Z,975.55
2017-10-13T03:38:21.364Z,975.55
2017-10-13T03:39:30.727Z,975.56
2017-10-13T03:40:39.760Z,975.56
2017-10-13T03:41:48.793Z,975.5
2017-10-13T03:42:57.824Z,975.56
2017-10-13T03:44:06.849Z,975.54
2017-10-13T03:45:16.541Z,975.55
2017-10-13T03:46:25.572Z,975.55
2017-10-13T03:47:34.933Z,975.56
2017-10-13T03:48:43.637Z,975.56
2017-10-13T03:49:52.663Z,975.6
2017-10-13T03:51:01.689Z,975.59
2017-10-13T03:52:10.717Z,975.61
2017-10-13T03:53:19.742Z,975.59
2017-10-13T03:54:28.769Z,975.6
2017-10-13T03:55:37.798Z,975.6
2017-10-13T03:56:46.491Z,975.57
2017-10-13T03:57:55.851Z,975.56
2017-10-13T03:59:05.554Z,975.58
2017-10-13T04:00:14.913Z,975.58
2017-10-13T04:01:23.936Z,975.54
2017-10-13T04:02:33.626Z,975.6
2017-10-13T04:03:42.328Z,975.59
2017-10-13T04:04:51.358Z,975.59
2017-10-13T04:06:00.722Z,975.59
2017-10-13T04:07:09.422Z,975.6
2017-10-13T04:08:18.783Z,975.55
2017-10-13T04:09:27.809Z,975.55
2017-10-13T04:10:36.840Z,975.57
2017-10-13T04:11:46.203Z,975.62
2017-10-13T04:12:54.904Z,975.57
2017-10-13T04:14:03.936Z,975.59
2017-10-13T04:15:12.635Z,975.64
2017-10-13T04:16:22.004Z,975.58
2017-10-13T04:17:31.034Z,975.57
2017-10-13T04:18:39.732Z,975.59
2017-10-13T04:19:49.101Z,975.58
2017-10-13T04:20:58.133Z,975.57
2017-10-13T04:22:07.163Z,975.58
2017-10-13T04:23:16.526Z,975.66
2017-10-13T04:24:26.218Z,975.59
2017-10-13T04:25:35.247Z,975.67
2017-10-13T04:26:44.608Z,975.63
2017-10-13T04:27:53.308Z,975.65
2017-10-13T04:29:02.342Z,975.67
2017-10-13T04:30:11.040Z,975.63
2017-10-13T04:31:20.072Z,975.67
2017-10-13T04:32:29.760Z,975.69
2017-10-13T04:33:39.117Z,975.57
2017-10-13T04:34:48.145Z,975.6
2017-10-13T04:35:57.513Z,975.58
2017-10-13T04:37:06.543Z,975.62
2017-10-13T04:38:15.569Z,975.67
2017-10-13T04:39:24.931Z,975.62
2017-10-13T04:40:33.959Z,975.59
2017-10-13T04:41:42.989Z,975.54
2017-10-13T04:42:52.018Z,975.54
2017-10-13T04:44:01.044Z,975.58
2017-10-13T04:45:10.083Z,975.6
2017-10-13T04:46:19.110Z,975.6
2017-10-13T04:47:28.471Z,975.61
2017-10-13T04:48:37.502Z,975.68
2017-10-13T04:49:46.865Z,975.69
2017-10-13T04:50:56.230Z,975.7
2017-10-13T04:52:05.927Z,975.69
2017-10-13T04:53:14.622Z,975.78
2017-10-13T04:54:23.648Z,975.71
2017-10-13T04:55:33.343Z,975.75
2017-10-13T04:56:42.042Z,975.73
2017-10-13T04:57:51.069Z,975.78
2017-10-13T04:59:00.762Z,975.78
2017-10-13T05:00:09.789Z,975.8
2017-10-13T05:01:18.814Z,975.81
2017-10-13T05:02:27.514Z,975.85
2017-10-13T05:03:36.874Z,975.85
2017-10-13T05:04:46.245Z,975.78
2017-10-13T05:05:54.940Z,975.7
2017-10-13T05:07:03.971Z,975.66
2017-10-13T05:08:13.333Z,975.67
2017-10-13T05:09:22.695Z,975.71
2017-10-13T05:10:31.726Z,975.71
2017-10-13T05:11:41.417Z,975.65
2017-10-13T05:12:50.451Z,975.71
2017-10-13T05:13:59.148Z,975.69
2017-10-13T05:15:08.185Z,975.69
2017-10-13T05:16:17.215Z,975.69
2017-10-13T05:17:26.576Z,975.7
2017-10-13T05:18:35.935Z,975.64
2017-10-13T05:19:45.959Z,975.71
2017-10-13T05:20:54.988Z,975.7
2017-10-13T05:22:04.694Z,975.75
2017-10-13T05:23:13.722Z,975.81
2017-10-13T05:24:22.752Z,975.81
2017-10-13T05:25:31.782Z,975.83
2017-10-13T05:26:41.147Z,975.87
2017-10-13T05:27:51.190Z,975.86
2017-10-13T05:29:00.217Z,975.88
2017-10-13T05:30:08.917Z,975.88
2017-10-13T05:31:17.953Z,975.84
2017-10-13T05:32:27.315Z,975.9
2017-10-13T05:33:36.676Z,975.92
2017-10-13T05:34:45.703Z,975.89
2017-10-13T05:35:54.732Z,975.89
2017-10-13T05:37:03.431Z,975.87
2017-10-13T05:38:13.132Z,975.85
2017-10-13T05:39:22.503Z,975.81
2017-10-13T05:40:31.871Z,975.82
2017-10-13T05:41:40.904Z,975.75
2017-10-13T05:42:49.598Z,975.82
2017-10-13T05:43:59.292Z,975.82
2017-10-13T05:45:08.331Z,975.84
2017-10-13T05:46:17.364Z,975.84
2017-10-13T05:47:26.408Z,975.81
2017-10-13T05:48:35.441Z,975.83
2017-10-13T05:49:44.143Z,975.82
2017-10-13T05:50:53.503Z,975.84
2017-10-13T05:52:02.200Z,975.85
2017-10-13T05:53:11.560Z,975.88
2017-10-13T05:54:20.593Z,975.9
2017-10-13T05:55:29.967Z,975.85
2017-10-13T05:56:39.327Z,975.83
2017-10-13T05:57:48.692Z,975.8
2017-10-13T05:58:57.721Z,975.82
2017-10-13T06:00:06.748Z,975.81
2017-10-13T06:01:16.112Z,975.83
2017-10-13T06:02:25.142Z,975.81
2017-10-13T06:03:34.169Z,975.77
2017-10-13T06:04:43.531Z,975.79
2017-10-13T06:05:52.891Z,975.83
2017-10-13T06:07:01.922Z,975.87
2017-10-13T06:08:10.952Z,975.85
2017-10-13T06:09:19.985Z,975.85
2017-10-13T06:10:29.007Z,975.83
2017-10-13T06:11:37.707Z,975.86
2017-10-13T06:12:46.742Z,975.83
2017-10-13T06:13:56.112Z,975.79
2017-10-13T06:15:05.147Z,975.85
2017-10-13T06:16:14.525Z,975.84
2017-10-13T06:17:24.228Z,975.81
2017-10-13T06:18:33.591Z,975.84
2017-10-13T06:19:43.288Z,975.89
2017-10-13T06:20:51.981Z,975.89
2017-10-13T06:22:01.669Z,975.93
2017-10-13T06:23:10.699Z,975.94
2017-10-13T06:24:20.062Z,976
2017-10-13T06:25:29.424Z,975.96
2017-10-13T06:26:38.783Z,975.93
2017-10-13T06:27:47.479Z,975.96
2017-10-13T06:28:56.518Z,975.96
2017-10-13T06:30:05.536Z,975.87
2017-10-13T06:31:14.900Z,975.95
2017-10-13T06:32:23.600Z,975.91
2017-10-13T06:33:32.628Z,975.86
2017-10-13T06:34:41.674Z,975.89
2017-10-13T06:35:50.368Z,975.88
2017-10-13T06:36:59.727Z,975.89
2017-10-13T06:38:08.758Z,975.88
2017-10-13T06:39:18.788Z,975.92
2017-10-13T06:40:27.821Z,975.91
2017-10-13T06:41:36.517Z,975.91
2017-10-13T06:42:45.559Z,975.91
2017-10-13T06:43:54.587Z,975.94
2017-10-13T06:45:03.619Z,975.92
2017-10-13T06:46:13.318Z,975.95
2017-10-13T06:47:22.679Z,975.98
2017-10-13T06:48:31.714Z,975.99
2017-10-13T06:49:41.079Z,976.02
2017-10-13T06:50:50.109Z,976.06
2017-10-13T06:51:59.137Z,976.09
2017-10-13T06:53:09.168Z,976.07
2017-10-13T06:54:18.203Z,976.08
2017-10-13T06:55:26.899Z,976.21
2017-10-13T06:56:36.594Z,976.21
2017-10-13T06:57:46.289Z,976.16
2017-10-13T06:58:55.313Z,976.17
2017-10-13T07:00:04.012Z,976.15
2017-10-13T07:01:13.046Z,976.17
2017-10-13T07:02:21.746Z,976.17
2017-10-13T07:03:30.776Z,976.22
2017-10-13T07:04:40.146Z,976.22
2017-10-13T07:05:49.172Z,976.27
2017-10-13T07:06:57.872Z,976.32
2017-10-13T07:08:06.572Z,976.28
2017-10-13T07:09:16.264Z,976.31
2017-10-13T07:10:25.298Z,976.3
2017-10-13T07:11:34.336Z,976.33
2017-10-13T07:12:43.698Z,976.3
2017-10-13T07:13:53.392Z,976.31
2017-10-13T07:15:02.760Z,976.29
2017-10-13T07:16:12.129Z,976.34
2017-10-13T07:17:21.824Z,976.33
2017-10-13T07:18:30.519Z,976.33
2017-10-13T07:19:39.215Z,976.31
2017-10-13T07:20:48.248Z,976.34
2017-10-13T07:21:56.942Z,976.36
2017-10-13T07:23:05.973Z,976.35
2017-10-13T07:24:15.343Z,976.34
2017-10-13T07:25:24.385Z,976.37
2017-10-13T07:26:33.410Z,976.36
2017-10-13T07:27:42.445Z,976.36
2017-10-13T07:28:52.141Z,976.37
2017-10-13T07:30:01.182Z,976.38
2017-10-13T07:31:10.212Z,976.43
2017-10-13T07:32:18.912Z,976.39
2017-10-13T07:33:27.607Z,976.41
2017-10-13T07:34:36.636Z,976.45
2017-10-13T07:35:45.329Z,976.41
2017-10-13T07:36:54.373Z,976.41
2017-10-13T07:38:03.072Z,976.39
2017-10-13T07:39:12.451Z,976.43
2017-10-13T07:40:21.480Z,976.47
2017-10-13T07:41:30.183Z,976.47
2017-10-13T07:42:39.211Z,976.45
2017-10-13T07:43:48.240Z,976.43
2017-10-13T07:44:57.603Z,976.45
2017-10-13T07:46:06.306Z,976.45
2017-10-13T07:47:15.670Z,976.43
2017-10-13T07:48:25.038Z,976.49
2017-10-13T07:49:33.741Z,976.46
2017-10-13T07:50:43.109Z,976.44
2017-10-13T07:51:52.797Z,976.48
2017-10-13T07:53:01.491Z,976.54
2017-10-13T07:54:10.525Z,976.55
2017-10-13T07:55:19.883Z,976.6
2017-10-13T07:56:29.589Z,976.61
2017-10-13T07:57:38.946Z,976.62
2017-10-13T07:58:47.975Z,976.64
2017-10-13T07:59:57.332Z,976.68
2017-10-13T08:01:06.694Z,976.74
2017-10-13T08:02:15.727Z,976.74
2017-10-13T08:03:24.759Z,976.74
2017-10-13T08:04:33.459Z,976.75
2017-10-13T08:05:42.501Z,976.73
2017-10-13T08:06:51.532Z,976.81
2017-10-13T08:08:01.558Z,976.76
2017-10-13T08:09:10.260Z,976.82
2017-10-13T08:10:19.955Z,976.79
2017-10-13T08:11:29.315Z,976.87
2017-10-13T08:12:38.345Z,976.88
2017-10-13T08:13:47.377Z,976.89
2017-10-13T08:14:56.740Z,976.87
2017-10-13T08:16:05.781Z,976.88
2017-10-13T08:17:14.476Z,976.87
2017-10-13T08:18:23.832Z,976.92
2017-10-13T08:19:32.869Z,976.86
2017-10-13T08:20:41.564Z,976.91
2017-10-13T08:21:50.923Z,976.94
2017-10-13T08:22:59.954Z,976.9
2017-10-13T08:24:09.332Z,976.97
2017-10-13T08:25:18.364Z,976.96
2017-10-13T08:26:28.397Z,977.04
2017-10-13T08:27:37.763Z,977.06
2017-10-13T08:28:47.136Z,977.04
2017-10-13T08:29:57.167Z,977.02
2017-10-13T08:31:05.865Z,976.96
2017-10-13T08:32:14.561Z,976.95
2017-10-13T08:33:24.254Z,976.95
2017-10-13T08:34:32.958Z,976.98
2017-10-13T08:35:42.991Z,976.98
2017-10-13T08:36:51.687Z,976.97
2017-10-13T08:38:00.384Z,977
2017-10-13T08:39:09.744Z,976.98
2017-10-13T08:40:19.437Z,977.01
2017-10-13T08:41:28.825Z,976.98
2017-10-13T08:42:37.863Z,976.97
2017-10-13T08:43:46.886Z,976.97
2017-10-13T08:44:56.245Z,976.97
2017-10-13T08:46:05.602Z,976.97
2017-10-13T08:47:14.301Z,976.98
2017-10-13T08:48:23.662Z,976.94
2017-10-13T08:49:32.723Z,976.99
2017-10-13T08:50:41.750Z,977.01
2017-10-13T08:51:51.111Z,977.03
2017-10-13T08:53:00.809Z,977.02
2017-10-13T08:54:10.167Z,977
2017-10-13T08:55:19.531Z,977.04
2017-10-13T08:56:29.221Z,977.05
2017-10-13T08:57:38.583Z,977.03
2017-10-13T08:58:47.283Z,977.03
2017-10-13T08:59:57.305Z,977.03
2017-10-13T09:01:06.017Z,977.11
2017-10-13T09:02:15.723Z,977.07
2017-10-13T09:03:24.753Z,977.07
2017-10-13T09:04:33.784Z,977.13
2017-10-13T09:05:43.480Z,977.14
2017-10-13T09:06:52.176Z,977.09
2017-10-13T09:08:01.210Z,977.06
2017-10-13T09:09:10.589Z,977.07
2017-10-13T09:10:19.623Z,977.02
2017-10-13T09:11:28.652Z,977.02
2017-10-13T09:12:37.354Z,977
2017-10-13T09:13:46.388Z,976.96
2017-10-13T09:14:55.431Z,976.9
2017-10-13T09:16:04.468Z,976.86
2017-10-13T09:17:13.498Z,976.85
2017-10-13T09:18:22.529Z,976.82
2017-10-13T09:19:31.228Z,976.83
2017-10-13T09:20:39.924Z,976.84
2017-10-13T09:21:48.959Z,976.84
2017-10-13T09:22:57.988Z,976.85
2017-10-13T09:24:07.346Z,976.85
2017-10-13T09:25:16.374Z,976.81
2017-10-13T09:26:26.066Z,976.84
2017-10-13T09:27:34.766Z,976.83
2017-10-13T09:28:44.467Z,976.83
2017-10-13T09:29:53.842Z,976.82
2017-10-13T09:31:03.202Z,976.84
2017-10-13T09:32:12.562Z,976.81
2017-10-13T09:33:21.592Z,976.85
2017-10-13T09:34:30.627Z,976.84
2017-10-13T09:35:39.665Z,976.78
2017-10-13T09:36:49.028Z,976.86
2017-10-13T09:37:58.396Z,976.85
2017-10-13T09:39:07.422Z,976.85
2017-10-13T09:40:16.118Z,976.87
2017-10-13T09:41:24.816Z,976.84
2017-10-13T09:42:33.519Z,976.84
2017-10-13T09:43:42.215Z,976.92
2017-10-13T09:44:51.577Z,976.87
2017-10-13T09:46:00.382Z,976.89
2017-10-13T09:47:09.080Z,976.84
2017-10-13T09:48:18.773Z,976.92
2017-10-13T09:49:27.806Z,976.86
2017-10-13T09:50:37.180Z,976.88
2017-10-13T09:51:46.222Z,976.89
2017-10-13T09:52:55.595Z,976.92
2017-10-13T09:54:04.625Z,976.94
2017-10-13T09:55:13.985Z,976.93
2017-10-13T09:56:23.013Z,976.93
2017-10-13T09:57:31.709Z,976.97
2017-10-13T09:58:40.405Z,976.97
2017-10-13T09:59:50.436Z,976.94
2017-10-13T10:00:59.133Z,977
2017-10-13T10:02:08.502Z,976.96
2017-10-13T10:03:17.528Z,976.95
2017-10-13T10:04:26.554Z,976.95
2017-10-13T10:05:35.599Z,977
2017-10-13T10:06:44.296Z,976.95
2017-10-13T10:07:53.331Z,977.01
2017-10-13T10:09:02.027Z,977
2017-10-13T10:10:11.058Z,976.97
2017-10-13T10:11:19.757Z,976.96
2017-10-13T10:12:28.456Z,976.97
2017-10-13T10:13:37.485Z,976.94
2017-10-13T10:14:46.515Z,976.96
2017-10-13T10:15:56.545Z,976.92
2017-10-13T10:17:05.572Z,976.97
2017-10-13T10:18:15.280Z,976.95
2017-10-13T10:19:24.293Z,976.97
2017-10-13T10:20:32.992Z,976.99
2017-10-13T10:21:42.353Z,977.03
2017-10-13T10:22:51.055Z,977.03
2017-10-13T10:24:00.750Z,977.03
2017-10-13T10:25:10.115Z,977.05
2017-10-13T10:26:19.478Z,977.03
2017-10-13T10:27:29.175Z,977.1
2017-10-13T10:28:38.202Z,977.07
2017-10-13T10:29:47.563Z,977.07
2017-10-13T10:30:56.268Z,977.07
2017-10-13T10:32:05.629Z,977.08
2017-10-13T10:33:14.670Z,977.06
2017-10-13T10:34:23.697Z,977.07
2017-10-13T10:35:32.395Z,977.07
2017-10-13T10:36:41.097Z,977.08
2017-10-13T10:37:50.131Z,977.19
2017-10-13T10:38:59.496Z,977.17
2017-10-13T10:40:09.188Z,977.23
2017-10-13T10:41:18.555Z,977.16
2017-10-13T10:42:27.582Z,977.2
2017-10-13T10:43:36.608Z,977.17
2017-10-13T10:44:45.970Z,977.22
2017-10-13T10:45:54.668Z,977.22
2017-10-13T10:47:03.694Z,977.17
2017-10-13T10:48:13.060Z,977.22
2017-10-13T10:49:22.096Z,977.26
2017-10-13T10:50:31.460Z,977.19
2017-10-13T10:51:41.159Z,977.23
2017-10-13T10:52:50.184Z,977.22
2017-10-13T10:53:59.878Z,977.25
2017-10-13T10:55:08.906Z,977.27
2017-10-13T10:56:18.263Z,977.25
2017-10-13T10:57:27.293Z,977.23
2017-10-13T10:58:35.988Z,977.24
2017-10-13T10:59:45.013Z,977.22
2017-10-13T11:00:54.372Z,977.28
2017-10-13T11:02:03.073Z,977.23
2017-10-13T11:03:12.099Z,977.25
2017-10-13T11:04:21.459Z,977.24
2017-10-13T11:05:30.819Z,977.21
2017-10-13T11:06:39.845Z,977.28
2017-10-13T11:07:49.209Z,977.21
2017-10-13T11:08:57.907Z,977.24
2017-10-13T11:10:06.940Z,977.24
2017-10-13T11:11:15.970Z,977.21
2017-10-13T11:12:24.999Z,977.21
2017-10-13T11:13:34.029Z,977.18
2017-10-13T11:14:43.397Z,977.22
2017-10-13T11:15:52.759Z,977.19
2017-10-13T11:17:01.785Z,977.19
2017-10-13T11:18:10.484Z,977.26
2017-10-13T11:19:19.513Z,977.25
2017-10-13T11:20:29.250Z,977.3
2017-10-13T11:21:37.947Z,977.26
2017-10-13T11:22:47.656Z,977.27
2017-10-13T11:23:56.356Z,977.3
2017-10-13T11:25:05.717Z,977.32
2017-10-13T11:26:14.749Z,977.29
2017-10-13T11:27:24.771Z,977.27
2017-10-13T11:28:33.473Z,977.27
2017-10-13T11:29:42.832Z,977.28
2017-10-13T11:30:51.860Z,977.25
2017-10-13T11:32:01.225Z,977.24
2017-10-13T11:33:09.924Z,977.24
2017-10-13T11:34:18.624Z,977.23
2017-10-13T11:35:27.999Z,977.28
2017-10-13T11:36:37.376Z,977.29
2017-10-13T11:37:46.737Z,977.3
2017-10-13T11:38:55.438Z,977.33
2017-10-13T11:40:04.140Z,977.32
2017-10-13T11:41:13.510Z,977.32
2017-10-13T11:42:22.538Z,977.28
2017-10-13T11:43:31.236Z,977.26
2017-10-13T11:44:40.266Z,977.25
2017-10-13T11:45:49.629Z,977.22
2017-10-13T11:46:58.995Z,977.27
2017-10-13T11:48:07.697Z,977.28
2017-10-13T11:49:16.725Z,977.27
2017-10-13T11:50:25.752Z,977.25
2017-10-13T11:51:34.780Z,977.24
2017-10-13T11:52:43.811Z,977.21
2017-10-13T11:53:52.504Z,977.27
2017-10-13T11:55:02.197Z,977.19
2017-10-13T11:56:11.233Z,977.15
2017-10-13T11:57:20.595Z,977.16
2017-10-13T11:58:29.621Z,977.15
2017-10-13T11:59:38.653Z,977.13
2017-10-13T12:00:47.354Z,977.15
2017-10-13T12:01:56.715Z,977.08
2017-10-13T12:03:06.411Z,977.13
2017-10-13T12:04:15.106Z,977.06
2017-10-13T12:05:24.805Z,977.08
2017-10-13T12:06:33.834Z,977.1
2017-10-13T12:07:42.869Z,977.08
2017-10-13T12:08:52.556Z,977.03
2017-10-13T12:10:01.253Z,977.09
2017-10-13T12:11:10.289Z,977
2017-10-13T12:12:19.984Z,977.01
2017-10-13T12:13:29.700Z,977
2017-10-13T12:14:39.058Z,977.03
2017-10-13T12:15:48.426Z,977.04
2017-10-13T12:16:57.458Z,977.04
2017-10-13T12:18:06.157Z,977.03
2017-10-13T12:19:14.856Z,977.03
2017-10-13T12:20:24.215Z,976.98
2017-10-13T12:21:33.247Z,977.02
2017-10-13T12:22:42.277Z,977.07
2017-10-13T12:23:51.306Z,977.02
2017-10-13T12:25:01.018Z,976.97
2017-10-13T12:26:10.052Z,976.99
2017-10-13T12:27:18.749Z,976.96
2017-10-13T12:28:28.444Z,976.95
2017-10-13T12:29:37.471Z,976.96
2017-10-13T12:30:46.499Z,976.92
2017-10-13T12:31:55.196Z,976.96
2017-10-13T12:33:03.898Z,976.92
2017-10-13T12:34:12.934Z,976.98
2017-10-13T12:35:21.967Z,976.96
2017-10-13T12:36:30.999Z,976.99
2017-10-13T12:37:39.701Z,976.96
2017-10-13T12:38:49.067Z,976.98
2017-10-13T12:39:58.431Z,977.01
2017-10-13T12:41:07.465Z,976.98
2017-10-13T12:42:16.159Z,976.98
2017-10-13T12:43:25.182Z,977.02
2017-10-13T12:44:34.090Z,977.01
2017-10-13T12:45:42.781Z,977.02
2017-10-13T12:46:51.823Z,976.99
2017-10-13T12:48:01.199Z,976.98
2017-10-13T12:49:10.233Z,977.01
2017-10-13T12:50:19.264Z,976.98
2017-10-13T12:51:28.297Z,976.98
2017-10-13T12:52:38.326Z,977
2017-10-13T12:53:47.026Z,976.99
2017-10-13T12:54:56.062Z,976.94
2017-10-13T12:56:05.096Z,976.96
2017-10-13T12:57:14.462Z,976.93
2017-10-13T12:58:23.830Z,976.93
2017-10-13T12:59:32.531Z,976.93
2017-10-13T13:00:41.232Z,976.98
2017-10-13T13:01:49.932Z,976.96
2017-10-13T13:02:59.659Z,977
2017-10-13T13:04:08.687Z,976.95
2017-10-13T13:05:18.051Z,976.96
2017-10-13T13:06:27.744Z,977
2017-10-13T13:07:36.773Z,976.97
2017-10-13T13:08:46.138Z,976.94
2017-10-13T13:09:55.170Z,976.97
2017-10-13T13:11:04.199Z,976.98
2017-10-13T13:12:12.903Z,976.98
2017-10-13T13:13:21.930Z,976.95
2017-10-13T13:14:30.627Z,976.99
2017-10-13T13:15:39.663Z,976.96
2017-10-13T13:16:48.701Z,976.96
2017-10-13T13:17:58.067Z,976.96
2017-10-13T13:19:06.767Z,976.96
2017-10-13T13:20:16.134Z,976.94
2017-10-13T13:21:24.830Z,976.92
2017-10-13T13:22:33.865Z,976.92
2017-10-13T13:23:42.562Z,976.96
2017-10-13T13:24:51.258Z,976.98
2017-10-13T13:25:59.956Z,977.02
2017-10-13T13:27:08.988Z,977.08
2017-10-13T13:28:18.020Z,977.04
2017-10-13T13:29:26.717Z,977.02
2017-10-13T13:30:35.749Z,977.05
2017-10-13T13:31:44.783Z,977.05
2017-10-13T13:32:54.143Z,977.01
2017-10-13T13:34:03.513Z,977.01
2017-10-13T13:35:12.876Z,977.03
2017-10-13T13:36:22.237Z,976.98
2017-10-13T13:37:31.269Z,976.99
2017-10-13T13:38:40.299Z,976.91
2017-10-13T13:39:49.994Z,976.93
2017-10-13T13:40:59.023Z,976.94
2017-10-13T13:42:08.389Z,976.92
2017-10-13T13:43:17.440Z,976.89
2017-10-13T13:44:27.150Z,976.89
2017-10-13T13:45:36.177Z,976.88
2017-10-13T13:46:44.872Z,976.89
2017-10-13T13:47:53.571Z,976.82
2017-10-13T13:49:02.933Z,976.82
2017-10-13T13:50:12.294Z,976.86
2017-10-13T13:51:21.657Z,976.85
2017-10-13T13:52:30.358Z,976.86
2017-10-13T13:53:39.399Z,976.9
2017-10-13T13:54:48.432Z,976.82
2017-10-13T13:55:57.793Z,976.8
2017-10-13T13:57:07.490Z,976.84
2017-10-13T13:58:17.196Z,976.73
2017-10-13T13:59:26.243Z,976.79
2017-10-13T14:00:35.610Z,976.79
2017-10-13T14:01:44.315Z,976.81
2017-10-13T14:02:53.007Z,976.81
2017-10-13T14:04:02.370Z,976.82
2017-10-13T14:05:11.065Z,976.81
2017-10-13T14:06:19.776Z,976.81
2017-10-13T14:07:28.476Z,976.71
2017-10-13T14:08:37.836Z,976.8
2017-10-13T14:09:46.867Z,976.79
2017-10-13T14:10:55.562Z,976.8
2017-10-13T14:12:04.262Z,976.81
2017-10-13T14:13:13.626Z,976.83
2017-10-13T14:14:22.654Z,976.82
2017-10-13T14:15:31.685Z,976.82
2017-10-13T14:16:40.381Z,976.84
2017-10-13T14:17:49.488Z,976.85
2017-10-13T14:18:59.200Z,976.86
2017-10-13T14:20:07.905Z,976.86
2017-10-13T14:21:17.261Z,976.82
2017-10-13T14:22:26.292Z,976.8
2017-10-13T14:23:35.321Z,976.8
2017-10-13T14:24:44.352Z,976.84
2017-10-13T14:25:53.379Z,976.86